Главная страница
METAR-TAF:

METAR-TAF

Аэропорты :

Дакар, Сенегал

широта: 14-44N, долгота: 017-30W, высота над уровнем моря: 27 м

Текущие метеонаблюдения

Эта сводка был подготовлена 3 часа и 11 минут назад, в 00:00 UTC
Ветер 4 Узел от северно-северо-западный
Температура 27°C
Влажность 84%
Давление 1015 hPa
Видимость: 8000 м
Отдельные облака на высоте 1300 фута

METAR: GOOY 170000Z 34004KT 8000 SCT013 27/24 Q1015

Время: 03:11 (03:11 UTC)

Прогноз

Эта сводка был подготовлена 3 часа и 41 минут назад, в 23:30 UTC
Прогноз действительный с 17-го 00 UTC до 18-го 06 UTC
Ветер 10 Узел от западный
Видимость 10 км и более
Отдельные облака на высоте 1300 фута

TAF: GOOY 162330Z 1700/1806 28010KT 9999 SCT013

Метеонаблюдения и прогнозы для более 4000 аэропортов (сводки METAR и TAF).

Имеющиеся станции представлены на карте желтыми и красными точками.

Чтобы увидеть название станции, наведите на нее мышь.

Затем щелкните, чтобы увидеть метеонаблюдения и метеопрогнозы.

Управление картой: чтобы увеличить масштаб, щелкните зеленые кнопки с черным крестиком; чтобы уменьшить масштаб, щелкните зеленую кнопку с тире; для просмотра соседних карт щелкайте зеленые стрелки.


METAR-TAF: